Time;durP1;ratioP1;P1;durP2;ratioP2;P2;SDS_P1;SDS_P2;PMS_P1;PMS_P2;Temp;Humidity;BMP_temperature;BMP_pressure;BME280_temperature;BME280_humidity;BME280_pressure;Samples;Min_cycle;Max_cycle;Signal;HPM_P1;HPM_P2
2023/01/31 03:22:30;;;;;;;0.00;0.00;;;;;;;-145.06;100.00;53896.44;10474755;28;20427;-83
2023/01/31 03:27:32;;;;;;;0.00;0.00;;;;;;;-145.06;100.00;53855.94;10505677;28;20028;-79
2023/01/31 03:32:41;;;;;;;0.00;0.00;;;;;;;-145.06;100.00;53912.63;10506049;28;20036;-83
2023/01/31 03:38:16;;;;;;;0.00;0.00;;;;;;;-145.06;100.00;53880.22;10485163;28;20055;-81
2023/01/31 03:43:31;;;;;;;0.00;0.00;;;;;;;-145.06;100.00;53868.09;10485624;28;20087;-83
2023/01/31 03:48:38;;;;;;;0.00;0.00;;;;;;;-145.06;100.00;53904.53;10502843;28;20025;-81
2023/01/31 03:53:45;;;;;;;0.00;0.00;;;;;;;-145.06;100.00;53855.94;10503983;28;20365;-82
2023/01/31 03:58:52;;;;;;;0.00;0.00;;;;;;;-145.06;100.00;53916.69;10504231;28;20021;-83
2023/01/31 04:04:07;;;;;;;0.00;0.00;;;;;;;-145.06;100.00;53878.22;10501777;28;20826;-80
2023/01/31 04:09:08;;;;;;;0.00;0.00;;;;;;;-145.06;100.00;53916.69;10497480;28;20028;-83
2023/01/31 04:14:09;;;;;;;0.00;0.00;;;;;;;-145.06;100.00;53896.44;10499780;28;20035;-83
2023/01/31 04:19:09;;;;;;;0.00;0.00;;;;;;;-145.06;100.00;53888.34;10504059;28;20028;-84
2023/01/31 04:24:09;;;;;;;0.00;0.00;;;;;;;-145.06;100.00;53855.94;10502859;28;20539;-83
2023/01/31 04:29:10;;;;;;;0.00;0.00;;;;;;;-145.06;100.00;53837.72;10501088;28;20390;-82
2023/01/31 04:34:10;;;;;;;0.00;0.00;;;;;;;-145.06;100.00;53882.25;10497438;28;20043;-83
2023/01/31 04:39:12;;;;;;;0.00;0.00;;;;;;;-145.06;100.00;53855.94;10490369;28;20031;-82
2023/01/31 04:44:13;;;;;;;0.00;0.00;;;;;;;-145.06;100.00;53874.16;10501055;28;20032;-83
2023/01/31 04:49:14;;;;;;;0.00;0.00;;;;;;;-145.06;100.00;53898.47;10503408;28;20482;-82
2023/01/31 04:54:15;;;;;;;0.00;0.00;;;;;;;-145.06;100.00;53902.50;10502844;28;20071;-81
2023/01/31 04:59:15;;;;;;;0.00;0.00;;;;;;;-145.06;100.00;53912.63;10502687;28;20025;-83
2023/01/31 05:04:16;;;;;;;0.00;0.00;;;;;;;-145.06;100.00;53878.22;10477567;28;20543;-83
2023/01/31 05:09:16;;;;;;;0.00;0.00;;;;;;;-145.06;100.00;53882.25;10489876;28;20271;-83
2023/01/31 05:14:19;;;;;;;0.00;0.00;;;;;;;-145.06;100.00;53876.19;10492323;28;20021;-83
2023/01/31 05:19:20;;;;;;;0.00;0.00;;;;;;;-145.06;100.00;53855.94;10496608;28;20024;-82
2023/01/31 05:24:21;;;;;;;0.00;0.00;;;;;;;-145.06;100.00;53855.94;10496534;28;20036;-80
2023/01/31 05:29:21;;;;;;;0.00;0.00;;;;;;;-145.06;100.00;53880.22;10495640;28;20196;-83
2023/01/31 05:34:24;;;;;;;0.00;0.00;;;;;;;-145.06;100.00;53900.50;10492682;28;20542;-81
2023/01/31 05:39:24;;;;;;;0.00;0.00;;;;;;;-145.06;100.00;53876.19;10498195;28;20282;-84
2023/01/31 05:44:25;;;;;;;0.00;0.00;;;;;;;-145.06;100.00;53890.38;10497497;28;20024;-79
2023/01/31 05:49:25;;;;;;;0.00;0.00;;;;;;;-145.06;100.00;53884.28;10495770;28;20020;-80
2023/01/31 05:54:25;;;;;;;0.00;0.00;;;;;;;-145.06;100.00;53880.22;10495415;28;20043;-79
2023/01/31 05:59:29;;;;;;;0.00;0.00;;;;;;;-145.06;100.00;53896.44;10488783;28;20025;-80
2023/01/31 06:04:29;;;;;;;0.00;0.00;;;;;;;-145.06;100.00;53878.22;10486109;28;20279;-82
2023/01/31 06:09:29;;;;;;;0.00;0.00;;;;;;;-145.06;100.00;53835.69;10479066;28;20509;-82
2023/01/31 06:14:31;;;;;;;0.00;0.00;;;;;;;-145.06;100.00;53892.38;10496623;28;20029;-81
2023/01/31 06:19:31;;;;;;;0.00;0.00;;;;;;;-145.06;100.00;53845.81;10491012;28;20518;-80
2023/01/31 06:24:31;;;;;;;0.00;0.00;;;;;;;-145.06;100.00;53849.84;10496225;28;20107;-80
2023/01/31 06:29:32;;;;;;;0.00;0.00;;;;;;;-145.06;100.00;53876.19;10494085;28;20028;-80
2023/01/31 06:34:32;;;;;;;0.00;0.00;;;;;;;-145.06;100.00;53864.03;10497257;28;20028;-80
2023/01/31 06:39:32;;;;;;;0.00;0.00;;;;;;;-145.06;100.00;53876.19;10491942;28;20287;-81
2023/01/31 06:44:33;;;;;;;0.00;0.00;;;;;;;-145.06;100.00;53888.34;10500395;28;20038;-81
2023/01/31 06:49:33;;;;;;;0.00;0.00;;;;;;;-145.06;100.00;53839.72;10501056;28;20441;-82
2023/01/31 06:54:34;;;;;;;0.00;0.00;;;;;;;-145.06;100.00;53904.53;10500508;28;20163;-81
2023/01/31 06:59:34;;;;;;;0.00;0.00;;;;;;;-145.06;100.00;53868.09;10500945;28;21166;-83
2023/01/31 07:04:34;;;;;;;0.00;0.00;;;;;;;-145.06;100.00;53849.84;10500257;28;20394;-81
2023/01/31 07:09:35;;;;;;;0.00;0.00;;;;;;;-145.06;100.00;53841.75;10496738;28;20064;-79
2023/01/31 07:14:35;;;;;;;0.00;0.00;;;;;;;-145.06;100.00;53876.19;10493972;28;21199;-80
2023/01/31 07:19:35;;;;;;;0.00;0.00;;;;;;;-145.06;100.00;53888.34;10496985;28;20029;-81
2023/01/31 07:24:35;;;;;;;0.00;0.00;;;;;;;-145.06;100.00;53876.19;10499989;28;20123;-79
2023/01/31 07:29:36;;;;;;;0.00;0.00;;;;;;;-145.06;100.00;53864.03;10499943;28;20020;-81
2023/01/31 07:34:36;;;;;;;0.00;0.00;;;;;;;-145.06;100.00;53851.88;10495511;28;20319;-82
2023/01/31 07:39:36;;;;;;;0.00;0.00;;;;;;;-145.06;100.00;53868.09;10495222;28;20101;-83
2023/01/31 07:44:37;;;;;;;0.00;0.00;;;;;;;-145.06;100.00;53924.78;10493233;28;20035;-82
2023/01/31 07:49:37;;;;;;;0.00;0.00;;;;;;;-145.06;100.00;53890.38;10496068;28;20024;-81
2023/01/31 07:54:37;;;;;;;0.00;0.00;;;;;;;-145.06;100.00;53894.41;10496486;28;20030;-80
2023/01/31 07:59:38;;;;;;;0.00;0.00;;;;;;;-145.06;100.00;53886.31;10499854;28;20131;-80
2023/01/31 08:04:38;;;;;;;0.00;0.00;;;;;;;-145.06;100.00;53878.22;10489399;28;20032;-82
2023/01/31 08:09:38;;;;;;;0.00;0.00;;;;;;;-145.06;100.00;53908.59;10493345;28;20028;-82
2023/01/31 08:14:39;;;;;;;0.00;0.00;;;;;;;-145.06;100.00;53896.44;10498533;28;20024;-80
2023/01/31 08:19:39;;;;;;;0.00;0.00;;;;;;;-145.06;100.00;53870.09;10495649;28;20491;-80
2023/01/31 08:24:39;;;;;;;0.00;0.00;;;;;;;-145.06;100.00;53892.38;10494889;28;20029;-80
2023/01/31 08:29:40;;;;;;;0.00;0.00;;;;;;;-145.06;100.00;53862.00;10493803;28;20024;-80
2023/01/31 08:34:42;;;;;;;0.00;0.00;;;;;;;-145.06;100.00;53821.50;10494053;28;20039;-81
2023/01/31 08:39:43;;;;;;;0.00;0.00;;;;;;;-145.06;100.00;53862.00;10497953;28;20035;-81
2023/01/31 08:44:43;;;;;;;0.00;0.00;;;;;;;-145.06;100.00;53872.13;10494470;28;20023;-79
2023/01/31 08:49:43;;;;;;;0.00;0.00;;;;;;;-145.06;100.00;53851.88;10496709;28;20134;-80
2023/01/31 08:54:43;;;;;;;0.00;0.00;;;;;;;-145.06;100.00;53908.59;10495527;28;20032;-81
2023/01/31 08:59:44;;;;;;;0.00;0.00;;;;;;;-145.06;100.00;53898.47;10489193;28;20036;-81
2023/01/31 09:04:44;;;;;;;0.00;0.00;;;;;;;-145.06;100.00;53886.31;10492308;28;20053;-81
2023/01/31 09:09:44;;;;;;;0.00;0.00;;;;;;;-145.06;100.00;53855.94;10491544;28;20017;-81
2023/01/31 09:14:45;;;;;;;0.00;0.00;;;;;;;-145.06;100.00;53866.06;10493208;28;20084;-80
2023/01/31 09:19:47;;;;;;;0.00;0.00;;;;;;;-145.06;100.00;53855.94;10512639;22;20060;-80
2023/01/31 09:24:47;;;;;;;0.00;0.00;;;;;;;-145.06;100.00;53841.75;10491128;28;20044;-78
2023/01/31 09:29:47;;;;;;;0.00;0.00;;;;;;;-145.06;100.00;53855.94;10497072;28;20035;-80
2023/01/31 09:34:48;;;;;;;0.00;0.00;;;;;;;-145.06;100.00;53886.31;10487614;28;20371;-78
2023/01/31 09:39:49;;;;;;;0.00;0.00;;;;;;;-145.06;100.00;53882.25;10480087;28;20387;-79
2023/01/31 09:45:12;;;;;;;0.00;0.00;;;;;;;-145.06;100.00;53904.53;10487913;28;20040;-77
2023/01/31 09:50:41;;;;;;;0.00;0.00;;;;;;;-145.06;100.00;53805.31;10483671;28;20033;-79
2023/01/31 09:56:14;;;;;;;0.00;0.00;;;;;;;-145.06;100.00;53902.50;10456302;28;20422;-78
2023/01/31 10:01:23;;;;;;;0.00;0.00;;;;;;;-145.06;100.00;53890.38;10489913;28;20024;-79
2023/01/31 10:06:52;;;;;;;0.00;0.00;;;;;;;-145.06;100.00;53847.84;10499781;28;20441;-78
2023/01/31 10:11:59;;;;;;;0.00;0.00;;;;;;;-145.06;100.00;53880.22;10478368;28;20050;-79
2023/01/31 10:17:24;;;;;;;0.00;0.00;;;;;;;-145.06;100.00;53866.06;10472945;28;20490;-77
2023/01/31 10:22:35;;;;;;;0.00;0.00;;;;;;;-145.06;100.00;53874.16;10502238;28;20060;-79
2023/01/31 10:27:48;;;;;;;0.00;0.00;;;;;;;-145.06;100.00;53874.16;10503487;28;20043;-77
2023/01/31 10:32:58;;;;;;;0.00;0.00;;;;;;;-145.06;100.00;53874.16;10503078;28;20032;-79
2023/01/31 10:38:18;;;;;;;0.00;0.00;;;;;;;-145.06;100.00;53892.38;10503046;28;20060;-78
2023/01/31 10:43:21;;;;;;;0.05;0.05;;;;;;;-145.06;100.00;53882.25;10501792;28;20170;-79
2023/01/31 10:48:25;;;;;;;0.00;0.00;;;;;;;-145.06;100.00;53876.19;10502919;28;20040;-78
2023/01/31 10:53:47;;;;;;;0.00;0.00;;;;;;;-145.06;100.00;53898.47;10502550;28;20024;-78
2023/01/31 10:58:49;;;;;;;0.00;0.00;;;;;;;-145.06;100.00;53870.09;10502389;28;20127;-79
2023/01/31 11:03:52;;;;;;;0.00;0.00;;;;;;;-145.06;100.00;53847.84;10500374;28;20067;-80
2023/01/31 11:09:00;;;;;;;0.00;0.00;;;;;;;-145.06;100.00;53837.72;10477231;28;20119;-77
2023/01/31 11:14:06;;;;;;;0.00;0.00;;;;;;;-145.06;100.00;53872.13;10500898;28;20079;-79
2023/01/31 11:19:28;;;;;;;0.00;0.00;;;;;;;-145.06;100.00;53851.88;10530909;28;20079;-79
2023/01/31 11:24:32;;;;;;;0.00;0.00;;;;;;;-145.06;100.00;53890.38;10526994;28;20060;-79
2023/01/31 11:29:54;;;;;;;0.00;0.00;;;;;;;-145.06;100.00;53864.03;10542785;28;20035;-78
2023/01/31 11:35:04;;;;;;;0.00;0.00;;;;;;;-145.06;100.00;53827.59;10528244;28;20035;-80
2023/01/31 11:40:30;;;;;;;0.00;0.00;;;;;;;-145.06;100.00;53829.59;10508628;28;20028;-79
2023/01/31 11:45:37;;;;;;;0.00;0.00;;;;;;;-145.06;100.00;53882.25;10530985;28;20319;-80
2023/01/31 11:50:39;;;;;;;0.00;0.00;;;;;;;-145.06;100.00;53880.22;10551159;28;20109;-82
2023/01/31 11:55:42;;;;;;;0.00;0.00;;;;;;;-145.06;100.00;53880.22;10526825;28;20509;-81
2023/01/31 12:00:56;;;;;;;0.00;0.00;;;;;;;-145.06;100.00;53880.22;10525419;28;20096;-80
2023/01/31 12:06:05;;;;;;;0.00;0.00;;;;;;;-145.06;100.00;53837.72;10503165;28;20555;-78
2023/01/31 12:11:28;;;;;;;0.00;0.00;;;;;;;-145.06;100.00;53898.47;10501757;28;20500;-80
2023/01/31 12:16:29;;;;;;;0.00;0.00;;;;;;;-145.06;100.00;53847.84;10509129;28;20044;-80
2023/01/31 12:21:46;;;;;;;0.00;0.00;;;;;;;-145.06;100.00;53847.84;10543462;28;20474;-80
2023/01/31 12:26:52;;;;;;;0.00;0.00;;;;;;;-145.06;100.00;53855.94;10544014;28;20441;-80
2023/01/31 12:32:17;;;;;;;0.00;0.00;;;;;;;-145.06;100.00;53849.84;10543551;28;20020;-81
2023/01/31 12:37:37;;;;;;;0.00;0.00;;;;;;;-145.06;100.00;53876.19;10543695;28;20085;-80
2023/01/31 12:42:45;;;;;;;0.00;0.00;;;;;;;-145.06;100.00;53892.38;10525046;28;20514;-80
2023/01/31 12:48:08;;;;;;;0.03;0.03;;;;;;;-145.06;100.00;53841.75;10526006;28;20407;-80
2023/01/31 12:53:26;;;;;;;0.00;0.00;;;;;;;-145.06;100.00;53864.03;10523034;28;20035;-79
2023/01/31 12:58:41;;;;;;;0.00;0.00;;;;;;;-145.06;100.00;53862.00;10541644;28;20425;-80
2023/01/31 13:04:10;;;;;;;0.00;0.00;;;;;;;-145.06;100.00;53868.09;10486978;28;20105;-78
2023/01/31 13:09:19;;;;;;;0.00;0.00;;;;;;;-145.06;100.00;53833.66;10520299;28;20118;-80
2023/01/31 13:14:24;;;;;;;0.00;0.00;;;;;;;-145.06;100.00;53847.84;10524474;28;20031;-79
2023/01/31 13:19:30;;;;;;;0.10;0.10;;;;;;;-145.06;100.00;53874.16;10509445;28;20138;-80
2023/01/31 13:24:41;;;;;;;0.10;0.10;;;;;;;-145.06;100.00;53872.13;10532433;28;20044;-79
2023/01/31 13:29:46;;;;;;;0.00;0.00;;;;;;;-145.06;100.00;53866.06;10507622;28;20024;-78
2023/01/31 13:34:57;;;;;;;0.00;0.00;;;;;;;-145.06;100.00;53884.28;10533631;28;20036;-80
2023/01/31 13:40:00;;;;;;;0.00;0.00;;;;;;;-145.06;100.00;53815.44;10529079;28;20475;-78
2023/01/31 13:45:06;;;;;;;0.10;0.10;;;;;;;-145.06;100.00;53855.94;10526035;28;20263;-79
2023/01/31 13:50:19;;;;;;;0.10;0.10;;;;;;;-145.06;100.00;53870.09;10548649;28;20491;-79
2023/01/31 13:55:36;;;;;;;0.00;0.00;;;;;;;-145.06;100.00;53839.72;10552207;28;20066;-81
2023/01/31 14:00:39;;;;;;;0.00;0.00;;;;;;;-145.06;100.00;53870.09;10537404;28;20139;-80
2023/01/31 14:05:52;;;;;;;0.05;0.05;;;;;;;-145.06;100.00;53859.97;10536995;28;20035;-81
2023/01/31 14:11:00;;;;;;;0.08;0.08;;;;;;;-145.06;100.00;53866.06;10556777;28;20376;-81
2023/01/31 14:16:01;;;;;;;0.08;0.08;;;;;;;-145.06;100.00;53855.94;10548913;28;20032;-81
2023/01/31 14:21:30;;;;;;;0.00;0.00;;;;;;;-145.06;100.00;53819.47;10547032;28;20103;-81
2023/01/31 14:26:42;;;;;;;0.10;0.10;;;;;;;-145.06;100.00;53866.06;10547385;28;20407;-81
2023/01/31 14:31:44;;;;;;;0.10;0.10;;;;;;;-145.06;100.00;53866.06;10547743;28;20078;-81
2023/01/31 14:37:02;;;;;;;0.10;0.10;;;;;;;-145.06;100.00;53880.22;10548502;28;20042;-81
2023/01/31 14:42:21;;;;;;;0.10;0.10;;;;;;;-145.06;100.00;53878.22;10547726;28;20034;-81
2023/01/31 14:47:54;;;;;;;0.00;0.00;;;;;;;-145.06;100.00;53874.16;10531160;28;20478;-81
2023/01/31 14:53:23;;;;;;;0.10;0.10;;;;;;;-145.06;100.00;53876.19;10546794;28;20036;-80
2023/01/31 14:58:26;;;;;;;0.00;0.00;;;;;;;-145.06;100.00;53837.72;10547620;28;20274;-80
2023/01/31 15:03:31;;;;;;;0.10;0.10;;;;;;;-145.06;100.00;53892.38;10547837;28;20101;-80
2023/01/31 15:08:37;;;;;;;0.00;0.00;;;;;;;-145.06;100.00;53872.13;10546545;28;20063;-80
2023/01/31 15:13:42;;;;;;;0.10;0.10;;;;;;;-145.06;100.00;53849.84;10547304;28;20325;-81
2023/01/31 15:18:50;;;;;;;0.00;0.00;;;;;;;-145.06;100.00;53900.50;10500173;22;20052;-84
2023/01/31 15:23:52;;;;;;;0.10;0.10;;;;;;;-145.06;100.00;53880.22;10458763;28;20037;-84
2023/01/31 15:28:53;;;;;;;0.00;0.00;;;;;;;-145.06;100.00;53862.00;10456388;28;20029;-86
2023/01/31 15:33:59;;;;;;;0.10;0.10;;;;;;;-145.06;100.00;53884.28;10459203;28;20031;-83
2023/01/31 15:39:20;;;;;;;0.00;0.00;;;;;;;-145.06;100.00;53904.53;10459079;28;20025;-83
2023/01/31 15:44:23;;;;;;;0.00;0.00;;;;;;;-145.06;100.00;53841.75;10463695;28;20033;-83
2023/01/31 15:49:28;;;;;;;0.00;0.00;;;;;;;-145.06;100.00;53872.13;10463053;28;20032;-82
2023/01/31 15:54:28;;;;;;;0.10;0.10;;;;;;;-145.06;100.00;53859.97;10463145;28;20025;-83
2023/01/31 15:59:32;;;;;;;0.00;0.00;;;;;;;-145.06;100.00;53872.13;10463463;28;20506;-83
2023/01/31 16:04:32;;;;;;;0.10;0.10;;;;;;;-145.06;100.00;53904.53;10460846;28;20536;-83
2023/01/31 16:09:33;;;;;;;0.00;0.00;;;;;;;-145.06;100.00;53855.94;10464117;28;20045;-82
2023/01/31 16:14:34;;;;;;;0.00;0.00;;;;;;;-145.06;100.00;53868.09;10460806;28;20025;-81
2023/01/31 16:19:35;;;;;;;0.00;0.00;;;;;;;-145.06;100.00;53849.84;10463646;28;20028;-82
2023/01/31 16:24:35;;;;;;;0.00;0.00;;;;;;;-145.06;100.00;53916.69;10463007;28;20040;-83
2023/01/31 16:29:45;;;;;;;0.00;0.00;;;;;;;-145.06;100.00;53843.78;10465798;28;20057;-83
2023/01/31 16:34:57;;;;;;;0.00;0.00;;;;;;;-145.06;100.00;53902.50;10465683;28;20033;-84
2023/01/31 16:40:02;;;;;;;0.00;0.00;;;;;;;-145.06;100.00;53868.09;10463335;28;20067;-82
2023/01/31 16:45:29;;;;;;;0.00;0.00;;;;;;;-145.06;100.00;53876.19;10461283;28;20029;-84
2023/01/31 16:50:31;;;;;;;0.00;0.00;;;;;;;-145.06;100.00;53894.41;10456072;28;20079;-80
2023/01/31 16:55:31;;;;;;;0.00;0.00;;;;;;;-145.06;100.00;53902.50;10451665;28;20033;-81
2023/01/31 17:00:33;;;;;;;0.00;0.00;;;;;;;-145.06;100.00;53868.09;10460481;28;20487;-82
2023/01/31 17:05:34;;;;;;;0.00;0.00;;;;;;;-145.06;100.00;53872.13;10458789;28;20041;-81
2023/01/31 17:10:34;;;;;;;0.00;0.00;;;;;;;-145.06;100.00;53870.09;10458507;28;20051;-83
2023/01/31 17:15:35;;;;;;;0.00;0.00;;;;;;;-145.06;100.00;53868.09;10457870;28;20089;-82
2023/01/31 17:20:35;;;;;;;0.00;0.00;;;;;;;-145.06;100.00;53882.25;10458657;28;20116;-82
2023/01/31 17:25:36;;;;;;;0.00;0.00;;;;;;;-145.06;100.00;53884.28;10460257;28;20276;-83
2023/01/31 17:30:39;;;;;;;0.00;0.00;;;;;;;-145.06;100.00;53910.63;10458631;28;20021;-81
2023/01/31 17:35:44;;;;;;;0.00;0.00;;;;;;;-145.06;100.00;53892.38;10458108;28;20037;-83
2023/01/31 17:40:47;;;;;;;0.00;0.00;;;;;;;-145.06;100.00;53884.28;10458079;28;20020;-82
2023/01/31 17:45:48;;;;;;;0.00;0.00;;;;;;;-145.06;100.00;53890.38;10459055;28;20036;-83
2023/01/31 17:50:48;;;;;;;0.00;0.00;;;;;;;-145.06;100.00;53926.81;10457222;28;20024;-82
2023/01/31 17:55:48;;;;;;;0.00;0.00;;;;;;;-145.06;100.00;53884.28;10458638;28;20267;-81
2023/01/31 18:00:49;;;;;;;0.00;0.00;;;;;;;-145.06;100.00;53896.44;10459427;28;20032;-82
2023/01/31 18:05:50;;;;;;;0.00;0.00;;;;;;;-145.06;100.00;53864.03;10459159;28;20750;-82
2023/01/31 18:10:50;;;;;;;0.00;0.00;;;;;;;-145.06;100.00;53866.06;10457376;28;20112;-82
2023/01/31 18:16:00;;;;;;;0.00;0.00;;;;;;;-145.06;100.00;53888.34;10459894;28;20100;-82
2023/01/31 18:21:04;;;;;;;0.00;0.00;;;;;;;-145.06;100.00;53872.13;10455666;28;20286;-82
2023/01/31 18:26:06;;;;;;;0.00;0.00;;;;;;;-145.06;100.00;53884.28;10463258;28;20029;-83
2023/01/31 18:31:12;;;;;;;0.00;0.00;;;;;;;-145.06;100.00;53847.84;10468225;28;20167;-82
2023/01/31 18:36:16;;;;;;;0.00;0.00;;;;;;;-145.06;100.00;53855.94;10466491;28;20524;-82
2023/01/31 18:41:19;;;;;;;0.00;0.00;;;;;;;-145.06;100.00;53902.50;10466605;28;20028;-83
2023/01/31 18:46:20;;;;;;;0.00;0.00;;;;;;;-145.06;100.00;53916.69;10464757;28;20037;-81
2023/01/31 18:51:20;;;;;;;0.00;0.00;;;;;;;-145.06;100.00;53868.09;10465055;28;20434;-82
2023/01/31 18:56:22;;;;;;;0.00;0.00;;;;;;;-145.06;100.00;53864.03;10465709;28;20036;-82
2023/01/31 19:01:25;;;;;;;0.10;0.10;;;;;;;-145.06;100.00;53896.44;10464277;28;20037;-83
2023/01/31 19:06:29;;;;;;;0.00;0.00;;;;;;;-145.06;100.00;53872.13;10466087;28;20404;-83
2023/01/31 19:11:30;;;;;;;0.10;0.10;;;;;;;-145.06;100.00;53864.03;10462472;28;20482;-82
2023/01/31 19:16:30;;;;;;;0.00;0.00;;;;;;;-145.06;100.00;53890.38;10464142;28;20068;-84
2023/01/31 19:21:32;;;;;;;0.00;0.00;;;;;;;-145.06;100.00;53880.22;10457539;28;20028;-82
2023/01/31 19:26:33;;;;;;;0.00;0.00;;;;;;;-145.06;100.00;53864.03;10462806;28;20535;-84
2023/01/31 19:31:34;;;;;;;0.00;0.00;;;;;;;-145.06;100.00;53870.09;10464715;28;20027;-82
2023/01/31 19:36:38;;;;;;;0.00;0.00;;;;;;;-145.06;100.00;53888.34;10461364;28;20484;-84
2023/01/31 19:41:39;;;;;;;0.00;0.00;;;;;;;-145.06;100.00;53882.25;10464004;28;20035;-82
2023/01/31 19:46:41;;;;;;;0.00;0.00;;;;;;;-145.06;100.00;53872.13;10462411;28;20591;-83
2023/01/31 19:51:41;;;;;;;0.00;0.00;;;;;;;-145.06;100.00;53916.69;10452239;28;20029;-82
2023/01/31 19:56:42;;;;;;;0.00;0.00;;;;;;;-145.06;100.00;53851.88;10456429;28;20096;-80
2023/01/31 20:01:43;;;;;;;0.00;0.00;;;;;;;-145.06;100.00;53892.38;10456097;28;20075;-79
2023/01/31 20:06:43;;;;;;;0.00;0.00;;;;;;;-145.06;100.00;53845.81;10457917;28;20083;-80
2023/01/31 20:11:43;;;;;;;0.00;0.00;;;;;;;-145.06;100.00;53853.91;10456516;28;20356;-80
2023/01/31 20:16:43;;;;;;;0.00;0.00;;;;;;;-145.06;100.00;53847.84;10455636;28;20036;-79
2023/01/31 20:21:44;;;;;;;0.00;0.00;;;;;;;-145.06;100.00;53851.88;10454057;28;20464;-79
2023/01/31 20:26:44;;;;;;;0.00;0.00;;;;;;;-145.06;100.00;53868.09;10457198;28;20029;-80
2023/01/31 20:31:45;;;;;;;0.00;0.00;;;;;;;-145.06;100.00;53888.34;10458662;28;20021;-81
2023/01/31 20:36:45;;;;;;;0.00;0.00;;;;;;;-145.06;100.00;53884.28;10455958;28;20033;-80
2023/01/31 20:41:45;;;;;;;0.00;0.00;;;;;;;-145.06;100.00;53845.81;10456384;28;20350;-81
2023/01/31 20:46:46;;;;;;;0.00;0.00;;;;;;;-145.06;100.00;53868.09;10455840;28;20035;-80
2023/01/31 20:51:46;;;;;;;0.00;0.00;;;;;;;-145.06;100.00;53864.03;10455571;28;20032;-81
2023/01/31 20:56:47;;;;;;;0.00;0.00;;;;;;;-145.06;100.00;53880.22;10455745;28;20029;-82
2023/01/31 21:01:47;;;;;;;0.00;0.00;;;;;;;-145.06;100.00;53843.78;10455376;28;20163;-81
2023/01/31 21:06:47;;;;;;;0.00;0.00;;;;;;;-145.06;100.00;53880.22;10455832;28;20029;-81
2023/01/31 21:11:48;;;;;;;0.00;0.00;;;;;;;-145.06;100.00;53872.13;10455582;28;20056;-80
2023/01/31 21:16:48;;;;;;;0.00;0.00;;;;;;;-145.06;100.00;53886.31;10466142;22;20048;-79
2023/01/31 21:21:48;;;;;;;0.00;0.00;;;;;;;-145.06;100.00;53855.94;10428466;28;20498;-77
2023/01/31 21:26:48;;;;;;;0.00;0.00;;;;;;;-145.06;100.00;53880.22;10454424;28;20024;-78
2023/01/31 21:31:50;;;;;;;0.00;0.00;;;;;;;-145.06;100.00;53876.19;10460977;28;20025;-80
2023/01/31 21:36:50;;;;;;;0.00;0.00;;;;;;;-145.06;100.00;53888.34;10459804;28;20108;-79
2023/01/31 21:47:10;;;;;;;0.00;0.00;;;;;;;-145.06;100.00;53880.22;10461605;28;20430;-79
2023/01/31 21:52:10;;;;;;;0.00;0.00;;;;;;;-145.06;100.00;53880.22;10455433;28;20469;-77
2023/01/31 21:57:10;;;;;;;0.00;0.00;;;;;;;-145.06;100.00;53868.09;10457683;28;20025;-78
2023/01/31 22:02:10;;;;;;;0.00;0.00;;;;;;;-145.06;100.00;53866.06;10467115;28;20029;-78
2023/01/31 22:07:11;;;;;;;0.00;0.00;;;;;;;-145.06;100.00;53880.22;10469261;28;20029;-79
2023/01/31 22:12:11;;;;;;;0.00;0.00;;;;;;;-145.06;100.00;53851.88;10466187;28;20440;-77
2023/01/31 22:17:11;;;;;;;0.00;0.00;;;;;;;-145.06;100.00;53872.13;10468710;28;20028;-77
2023/01/31 22:22:12;;;;;;;0.00;0.00;;;;;;;-145.06;100.00;53892.38;10465882;28;20029;-77
2023/01/31 22:27:12;;;;;;;0.00;0.00;;;;;;;-145.06;100.00;53898.47;10463366;28;20028;-77
2023/01/31 22:32:12;;;;;;;0.00;0.00;;;;;;;-145.06;100.00;53916.69;10467683;28;20400;-78
2023/01/31 22:37:13;;;;;;;0.00;0.00;;;;;;;-145.06;100.00;53880.22;10467631;28;20496;-76
2023/01/31 22:42:13;;;;;;;0.00;0.00;;;;;;;-145.06;100.00;53878.22;10458043;28;20400;-77
2023/01/31 22:47:13;;;;;;;0.00;0.00;;;;;;;-145.06;100.00;53898.47;10460271;28;20021;-76
2023/01/31 22:52:13;;;;;;;0.00;0.00;;;;;;;-145.06;100.00;53900.50;10463391;28;20461;-78
2023/01/31 22:57:15;;;;;;;0.00;0.00;;;;;;;-145.06;100.00;53845.81;10461048;28;20312;-77
2023/01/31 23:02:15;;;;;;;0.00;0.00;;;;;;;-145.06;100.00;53896.44;10466647;28;20407;-80
2023/01/31 23:07:16;;;;;;;0.00;0.00;;;;;;;-145.06;100.00;53847.84;10464726;28;20053;-77
2023/01/31 23:12:17;;;;;;;0.00;0.00;;;;;;;-145.06;100.00;53896.44;10465197;28;20021;-79
2023/01/31 23:17:36;;;;;;;0.00;0.00;;;;;;;-145.06;100.00;53868.09;10466220;28;20043;-78
2023/01/31 23:22:37;;;;;;;0.00;0.00;;;;;;;-145.06;100.00;53892.38;10461796;28;20044;-80
2023/01/31 23:27:38;;;;;;;0.00;0.00;;;;;;;-145.06;100.00;53880.22;10463971;28;20029;-79
2023/01/31 23:32:39;;;;;;;0.00;0.00;;;;;;;-145.06;100.00;53892.38;10465011;28;20029;-77
2023/01/31 23:37:39;;;;;;;0.00;0.00;;;;;;;-145.06;100.00;53884.28;10465740;28;20116;-79
2023/01/31 23:42:40;;;;;;;0.00;0.00;;;;;;;-145.06;100.00;53853.91;10462307;28;20140;-79
2023/01/31 23:47:42;;;;;;;0.00;0.00;;;;;;;-145.06;100.00;53880.22;10459176;28;20064;-78
2023/01/31 23:52:42;;;;;;;0.00;0.00;;;;;;;-145.06;100.00;53878.22;10449816;28;20627;-78
2023/01/31 23:57:44;;;;;;;0.00;0.00;;;;;;;-145.06;100.00;53880.22;10455024;28;20032;-79
